sensor_id;sensor_type;location;lat;lon;timestamp;pressure;altitude;pressure_sealevel;temperature;humidity
72370;BME280;60343;-32.030;115.880;2022-12-07T00:01:11;101536.13;;;21.97;42.98
72370;BME280;60343;-32.030;115.880;2022-12-07T00:03:40;101530.81;;;22.02;43.34
72370;BME280;60343;-32.030;115.880;2022-12-07T00:06:15;101542.09;;;22.06;43.10
72370;BME280;60343;-32.030;115.880;2022-12-07T00:08:43;101538.25;;;22.25;43.63
72370;BME280;60343;-32.030;115.880;2022-12-07T00:11:13;101530.53;;;22.52;43.09
72370;BME280;60343;-32.030;115.880;2022-12-07T00:13:41;101529.78;;;22.86;41.64
72370;BME280;60343;-32.030;115.880;2022-12-07T00:16:11;101528.59;;;22.82;41.26
72370;BME280;60343;-32.030;115.880;2022-12-07T00:18:40;101537.13;;;22.86;41.74
72370;BME280;60343;-32.030;115.880;2022-12-07T00:21:14;101520.63;;;22.81;41.18
72370;BME280;60343;-32.030;115.880;2022-12-07T00:23:43;101516.84;;;22.93;40.98
72370;BME280;60343;-32.030;115.880;2022-12-07T00:26:13;101495.81;;;23.29;41.73
72370;BME280;60343;-32.030;115.880;2022-12-07T00:28:41;101505.38;;;23.66;40.26
72370;BME280;60343;-32.030;115.880;2022-12-07T00:31:13;101504.59;;;23.94;40.39
72370;BME280;60343;-32.030;115.880;2022-12-07T00:33:41;101504.69;;;23.99;39.84
72370;BME280;60343;-32.030;115.880;2022-12-07T00:36:17;101497.25;;;24.23;39.41
72370;BME280;60343;-32.030;115.880;2022-12-07T00:38:44;101492.69;;;24.45;38.74
72370;BME280;60343;-32.030;115.880;2022-12-07T00:41:13;101492.44;;;24.30;38.89
72370;BME280;60343;-32.030;115.880;2022-12-07T00:43:42;101485.50;;;24.39;38.14
72370;BME280;60343;-32.030;115.880;2022-12-07T00:46:11;101482.84;;;24.44;37.61
72370;BME280;60343;-32.030;115.880;2022-12-07T00:48:39;101478.41;;;23.98;38.70
72370;BME280;60343;-32.030;115.880;2022-12-07T00:51:07;101473.13;;;24.36;38.53
72370;BME280;60343;-32.030;115.880;2022-12-07T00:53:42;101460.84;;;24.56;38.51
72370;BME280;60343;-32.030;115.880;2022-12-07T00:56:12;101453.38;;;24.85;37.63
72370;BME280;60343;-32.030;115.880;2022-12-07T00:58:42;101456.25;;;25.11;37.27
72370;BME280;60343;-32.030;115.880;2022-12-07T01:01:10;101454.94;;;25.14;36.77
72370;BME280;60343;-32.030;115.880;2022-12-07T01:03:38;101454.03;;;25.08;37.57
72370;BME280;60343;-32.030;115.880;2022-12-07T01:06:06;101448.84;;;25.12;36.73
72370;BME280;60343;-32.030;115.880;2022-12-07T01:08:34;101450.34;;;25.41;36.29
72370;BME280;60343;-32.030;115.880;2022-12-07T01:11:11;101444.72;;;25.31;35.77
72370;BME280;60343;-32.030;115.880;2022-12-07T01:13:40;101439.72;;;25.67;36.73
72370;BME280;60343;-32.030;115.880;2022-12-07T01:16:08;101428.91;;;25.82;36.02
72370;BME280;60343;-32.030;115.880;2022-12-07T01:18:38;101442.72;;;26.19;35.53
72370;BME280;60343;-32.030;115.880;2022-12-07T01:21:13;101432.28;;;26.21;35.12
72370;BME280;60343;-32.030;115.880;2022-12-07T01:23:41;101438.75;;;25.78;35.66
72370;BME280;60343;-32.030;115.880;2022-12-07T01:26:16;101427.41;;;26.23;35.59
72370;BME280;60343;-32.030;115.880;2022-12-07T01:28:45;101426.94;;;26.04;35.08
72370;BME280;60343;-32.030;115.880;2022-12-07T01:31:15;101419.53;;;25.78;35.66
72370;BME280;60343;-32.030;115.880;2022-12-07T01:33:44;101419.84;;;25.81;35.41
72370;BME280;60343;-32.030;115.880;2022-12-07T01:36:15;101420.19;;;25.85;35.59
72370;BME280;60343;-32.030;115.880;2022-12-07T01:38:44;101408.91;;;26.13;34.92
72370;BME280;60343;-32.030;115.880;2022-12-07T01:41:18;101396.47;;;26.32;34.98
72370;BME280;60343;-32.030;115.880;2022-12-07T01:44:10;101396.59;;;26.47;34.49
72370;BME280;60343;-32.030;115.880;2022-12-07T01:46:38;101390.53;;;26.40;34.15
72370;BME280;60343;-32.030;115.880;2022-12-07T01:49:07;101388.16;;;26.59;34.65
72370;BME280;60343;-32.030;115.880;2022-12-07T01:51:38;101377.03;;;26.76;33.99
72370;BME280;60343;-32.030;115.880;2022-12-07T01:54:08;101370.34;;;27.14;34.44
72370;BME280;60343;-32.030;115.880;2022-12-07T01:56:45;101363.81;;;27.25;32.89
72370;BME280;60343;-32.030;115.880;2022-12-07T01:59:16;101358.56;;;27.23;33.56
72370;BME280;60343;-32.030;115.880;2022-12-07T02:01:44;101343.16;;;27.22;33.39
72370;BME280;60343;-32.030;115.880;2022-12-07T02:04:13;101350.88;;;27.20;33.41
72370;BME280;60343;-32.030;115.880;2022-12-07T02:06:41;101348.19;;;27.41;33.81
72370;BME280;60343;-32.030;115.880;2022-12-07T02:09:10;101346.50;;;27.35;33.20
72370;BME280;60343;-32.030;115.880;2022-12-07T02:11:44;101348.31;;;27.04;33.12
72370;BME280;60343;-32.030;115.880;2022-12-07T02:14:12;101342.53;;;27.00;33.83
72370;BME280;60343;-32.030;115.880;2022-12-07T02:16:47;101322.75;;;26.98;34.17
72370;BME280;60343;-32.030;115.880;2022-12-07T02:25:40;101312.97;;;27.43;33.01
72370;BME280;60343;-32.030;115.880;2022-12-07T02:28:24;101299.78;;;27.45;33.53
72370;BME280;60343;-32.030;115.880;2022-12-07T02:31:05;101298.69;;;27.36;32.77
72370;BME280;60343;-32.030;115.880;2022-12-07T02:33:37;101297.56;;;27.47;33.60
72370;BME280;60343;-32.030;115.880;2022-12-07T02:36:12;101290.44;;;27.41;32.55
72370;BME280;60343;-32.030;115.880;2022-12-07T02:38:47;101278.09;;;27.53;33.26
72370;BME280;60343;-32.030;115.880;2022-12-07T02:41:22;101281.94;;;27.62;32.15
72370;BME280;60343;-32.030;115.880;2022-12-07T02:43:55;101273.41;;;27.54;32.30
72370;BME280;60343;-32.030;115.880;2022-12-07T02:46:31;101267.94;;;27.59;32.67
72370;BME280;60343;-32.030;115.880;2022-12-07T02:49:00;101275.91;;;27.91;32.56
72370;BME280;60343;-32.030;115.880;2022-12-07T02:51:31;101260.22;;;28.06;31.67
72370;BME280;60343;-32.030;115.880;2022-12-07T02:53:59;101262.16;;;28.16;32.18
72370;BME280;60343;-32.030;115.880;2022-12-07T02:56:30;101262.69;;;28.18;31.00
72370;BME280;60343;-32.030;115.880;2022-12-07T02:59:11;101250.50;;;28.39;30.62
72370;BME280;60343;-32.030;115.880;2022-12-07T03:01:55;101249.69;;;28.39;30.82
72370;BME280;60343;-32.030;115.880;2022-12-07T03:04:37;101249.53;;;28.84;31.56
72370;BME280;60343;-32.030;115.880;2022-12-07T03:07:15;101239.00;;;29.02;31.00
72370;BME280;60343;-32.030;115.880;2022-12-07T03:09:49;101230.38;;;29.08;29.80
72370;BME280;60343;-32.030;115.880;2022-12-07T03:12:24;101228.31;;;28.85;29.66
72370;BME280;60343;-32.030;115.880;2022-12-07T03:14:59;101229.09;;;28.95;30.14
72370;BME280;60343;-32.030;115.880;2022-12-07T03:17:36;101225.69;;;29.09;29.39
72370;BME280;60343;-32.030;115.880;2022-12-07T03:20:09;101225.09;;;29.17;29.66
72370;BME280;60343;-32.030;115.880;2022-12-07T03:22:40;101214.94;;;29.12;28.85
72370;BME280;60343;-32.030;115.880;2022-12-07T03:25:11;101206.66;;;28.53;31.13
72370;BME280;60343;-32.030;115.880;2022-12-07T03:27:45;101210.09;;;28.04;30.76
72370;BME280;60343;-32.030;115.880;2022-12-07T03:30:19;101193.56;;;28.09;30.81
72370;BME280;60343;-32.030;115.880;2022-12-07T03:32:56;101194.63;;;28.34;30.52
72370;BME280;60343;-32.030;115.880;2022-12-07T03:35:25;101176.66;;;28.51;29.86
72370;BME280;60343;-32.030;115.880;2022-12-07T03:37:57;101183.16;;;28.71;30.08
72370;BME280;60343;-32.030;115.880;2022-12-07T03:40:30;101166.13;;;29.08;30.80
72370;BME280;60343;-32.030;115.880;2022-12-07T03:43:00;101161.09;;;29.54;28.51
72370;BME280;60343;-32.030;115.880;2022-12-07T03:45:36;101148.69;;;29.80;28.23
72370;BME280;60343;-32.030;115.880;2022-12-07T03:48:19;101148.28;;;29.97;27.84
72370;BME280;60343;-32.030;115.880;2022-12-07T03:50:52;101148.03;;;30.17;27.66
72370;BME280;60343;-32.030;115.880;2022-12-07T03:53:24;101146.72;;;30.33;28.69
72370;BME280;60343;-32.030;115.880;2022-12-07T03:55:55;101132.53;;;30.21;27.59
72370;BME280;60343;-32.030;115.880;2022-12-07T03:58:25;101120.97;;;30.38;28.84
72370;BME280;60343;-32.030;115.880;2022-12-07T04:00:53;101126.91;;;30.68;27.09
72370;BME280;60343;-32.030;115.880;2022-12-07T04:03:26;101117.88;;;30.82;26.59
72370;BME280;60343;-32.030;115.880;2022-12-07T04:05:54;101118.22;;;30.94;27.96
72370;BME280;60343;-32.030;115.880;2022-12-07T04:08:22;101103.38;;;31.08;27.03
72370;BME280;60343;-32.030;115.880;2022-12-07T04:10:49;101098.81;;;31.18;27.48
72370;BME280;60343;-32.030;115.880;2022-12-07T04:13:17;101085.78;;;31.18;26.54
72370;BME280;60343;-32.030;115.880;2022-12-07T04:15:45;101074.97;;;31.49;26.27
72370;BME280;60343;-32.030;115.880;2022-12-07T04:18:13;101072.34;;;31.12;26.31
72370;BME280;60343;-32.030;115.880;2022-12-07T04:20:46;101068.38;;;30.99;25.99
72370;BME280;60343;-32.030;115.880;2022-12-07T04:23:14;101055.50;;;30.76;26.32
72370;BME280;60343;-32.030;115.880;2022-12-07T04:25:42;101063.69;;;30.81;27.12
72370;BME280;60343;-32.030;115.880;2022-12-07T04:28:10;101065.78;;;31.07;26.51
72370;BME280;60343;-32.030;115.880;2022-12-07T04:30:37;101059.13;;;31.08;26.27
72370;BME280;60343;-32.030;115.880;2022-12-07T04:33:05;101040.38;;;31.19;26.39
72370;BME280;60343;-32.030;115.880;2022-12-07T04:35:33;101024.56;;;31.38;25.67
72370;BME280;60343;-32.030;115.880;2022-12-07T04:38:06;101029.75;;;31.40;25.84
72370;BME280;60343;-32.030;115.880;2022-12-07T04:40:34;101022.72;;;31.47;25.54
72370;BME280;60343;-32.030;115.880;2022-12-07T04:43:02;101012.75;;;31.46;25.72
72370;BME280;60343;-32.030;115.880;2022-12-07T04:45:29;101014.13;;;31.63;25.04
72370;BME280;60343;-32.030;115.880;2022-12-07T04:47:57;101000.88;;;31.46;25.39
72370;BME280;60343;-32.030;115.880;2022-12-07T04:50:25;101008.34;;;31.45;24.42
72370;BME280;60343;-32.030;115.880;2022-12-07T04:52:53;100997.06;;;31.28;25.29
72370;BME280;60343;-32.030;115.880;2022-12-07T04:55:26;100978.00;;;31.13;25.04
72370;BME280;60343;-32.030;115.880;2022-12-07T04:57:54;100981.84;;;30.98;25.64
72370;BME280;60343;-32.030;115.880;2022-12-07T05:00:22;100968.25;;;31.29;26.39
72370;BME280;60343;-32.030;115.880;2022-12-07T05:02:50;100975.38;;;31.63;26.09
72370;BME280;60343;-32.030;115.880;2022-12-07T05:05:17;100969.03;;;31.62;25.55
72370;BME280;60343;-32.030;115.880;2022-12-07T05:07:45;100960.13;;;32.01;25.89
72370;BME280;60343;-32.030;115.880;2022-12-07T05:10:13;100956.09;;;32.43;24.29
72370;BME280;60343;-32.030;115.880;2022-12-07T05:12:46;100945.91;;;32.52;23.88
72370;BME280;60343;-32.030;115.880;2022-12-07T05:15:14;100933.28;;;32.46;23.79
72370;BME280;60343;-32.030;115.880;2022-12-07T05:17:42;100942.69;;;32.36;23.76
72370;BME280;60343;-32.030;115.880;2022-12-07T05:20:10;100943.44;;;32.51;23.14
72370;BME280;60343;-32.030;115.880;2022-12-07T05:22:38;100934.75;;;32.44;24.34
72370;BME280;60343;-32.030;115.880;2022-12-07T05:25:06;100924.41;;;32.58;23.88
72370;BME280;60343;-32.030;115.880;2022-12-07T05:27:34;100912.25;;;32.67;23.86
72370;BME280;60343;-32.030;115.880;2022-12-07T05:30:08;100919.38;;;32.91;23.21
72370;BME280;60343;-32.030;115.880;2022-12-07T05:32:36;100912.06;;;33.26;23.33
72370;BME280;60343;-32.030;115.880;2022-12-07T05:35:04;100902.75;;;33.22;23.30
72370;BME280;60343;-32.030;115.880;2022-12-07T05:37:32;100910.00;;;33.40;23.67
72370;BME280;60343;-32.030;115.880;2022-12-07T05:40:00;100900.88;;;33.56;22.58
72370;BME280;60343;-32.030;115.880;2022-12-07T05:42:27;100899.41;;;33.59;22.39
72370;BME280;60343;-32.030;115.880;2022-12-07T05:44:55;100897.78;;;33.67;21.99
72370;BME280;60343;-32.030;115.880;2022-12-07T05:47:28;100886.00;;;33.61;21.92
72370;BME280;60343;-32.030;115.880;2022-12-07T05:49:56;100875.50;;;33.41;22.01
72370;BME280;60343;-32.030;115.880;2022-12-07T05:52:24;100872.25;;;33.39;21.73
72370;BME280;60343;-32.030;115.880;2022-12-07T05:54:52;100874.59;;;33.54;22.55
72370;BME280;60343;-32.030;115.880;2022-12-07T05:57:19;100858.06;;;33.66;22.69
72370;BME280;60343;-32.030;115.880;2022-12-07T05:59:47;100856.66;;;33.77;21.67
72370;BME280;60343;-32.030;115.880;2022-12-07T06:02:16;100860.72;;;34.05;21.97
72370;BME280;60343;-32.030;115.880;2022-12-07T06:04:49;100855.81;;;34.11;21.28
72370;BME280;60343;-32.030;115.880;2022-12-07T06:07:17;100854.50;;;34.34;20.92
72370;BME280;60343;-32.030;115.880;2022-12-07T06:09:45;100847.47;;;34.02;20.93
72370;BME280;60343;-32.030;115.880;2022-12-07T06:12:14;100853.22;;;33.97;21.83
72370;BME280;60343;-32.030;115.880;2022-12-07T06:14:42;100837.00;;;34.34;22.15
72370;BME280;60343;-32.030;115.880;2022-12-07T06:17:10;100837.34;;;34.24;21.55
72370;BME280;60343;-32.030;115.880;2022-12-07T06:19:38;100830.47;;;34.13;21.49
72370;BME280;60343;-32.030;115.880;2022-12-07T06:22:12;100827.72;;;34.04;21.90
72370;BME280;60343;-32.030;115.880;2022-12-07T06:24:40;100819.38;;;34.30;22.14
72370;BME280;60343;-32.030;115.880;2022-12-07T06:27:08;100815.28;;;34.19;21.31
72370;BME280;60343;-32.030;115.880;2022-12-07T06:29:36;100815.50;;;33.79;21.24
72370;BME280;60343;-32.030;115.880;2022-12-07T06:32:03;100810.53;;;33.42;21.94
72370;BME280;60343;-32.030;115.880;2022-12-07T06:34:31;100804.50;;;33.40;22.36
72370;BME280;60343;-32.030;115.880;2022-12-07T06:36:59;100800.25;;;33.42;22.98
72370;BME280;60343;-32.030;115.880;2022-12-07T06:39:32;100798.66;;;33.84;21.72
72370;BME280;60343;-32.030;115.880;2022-12-07T06:42:00;100787.66;;;34.14;21.30
72370;BME280;60343;-32.030;115.880;2022-12-07T06:44:28;100797.94;;;34.22;21.60
72370;BME280;60343;-32.030;115.880;2022-12-07T06:46:56;100792.63;;;34.55;21.07
72370;BME280;60343;-32.030;115.880;2022-12-07T06:49:26;100784.09;;;34.51;20.55
72370;BME280;60343;-32.030;115.880;2022-12-07T06:51:54;100792.97;;;34.44;20.38
72370;BME280;60343;-32.030;115.880;2022-12-07T06:54:22;100783.03;;;34.35;20.40
72370;BME280;60343;-32.030;115.880;2022-12-07T06:56:55;100784.66;;;34.36;20.72
72370;BME280;60343;-32.030;115.880;2022-12-07T06:59:23;100773.72;;;34.31;20.46
72370;BME280;60343;-32.030;115.880;2022-12-07T07:01:51;100773.78;;;34.60;20.99
72370;BME280;60343;-32.030;115.880;2022-12-07T07:04:19;100776.06;;;34.58;20.30
72370;BME280;60343;-32.030;115.880;2022-12-07T07:06:46;100768.53;;;34.59;20.31
72370;BME280;60343;-32.030;115.880;2022-12-07T07:09:14;100762.13;;;34.67;20.50
72370;BME280;60343;-32.030;115.880;2022-12-07T07:11:42;100758.16;;;34.76;20.81
72370;BME280;60343;-32.030;115.880;2022-12-07T07:14:16;100755.22;;;35.02;20.19
72370;BME280;60343;-32.030;115.880;2022-12-07T07:16:43;100751.66;;;35.22;19.85
72370;BME280;60343;-32.030;115.880;2022-12-07T07:19:11;100755.47;;;35.18;19.68
72370;BME280;60343;-32.030;115.880;2022-12-07T07:21:39;100735.78;;;35.44;20.60
72370;BME280;60343;-32.030;115.880;2022-12-07T07:24:07;100732.25;;;35.55;19.56
72370;BME280;60343;-32.030;115.880;2022-12-07T07:26:35;100725.38;;;35.32;20.01
72370;BME280;60343;-32.030;115.880;2022-12-07T07:29:03;100726.38;;;35.07;19.72
72370;BME280;60343;-32.030;115.880;2022-12-07T07:31:36;100725.56;;;34.85;20.05
72370;BME280;60343;-32.030;115.880;2022-12-07T07:34:03;100715.03;;;34.91;20.62
72370;BME280;60343;-32.030;115.880;2022-12-07T07:36:32;100711.75;;;35.18;20.18
72370;BME280;60343;-32.030;115.880;2022-12-07T07:38:59;100704.97;;;35.28;19.76
72370;BME280;60343;-32.030;115.880;2022-12-07T07:41:27;100704.72;;;35.21;18.98
72370;BME280;60343;-32.030;115.880;2022-12-07T07:43:55;100701.56;;;35.22;19.44
72370;BME280;60343;-32.030;115.880;2022-12-07T07:46:23;100698.44;;;35.24;19.98
72370;BME280;60343;-32.030;115.880;2022-12-07T07:48:57;100688.97;;;35.37;18.69
72370;BME280;60343;-32.030;115.880;2022-12-07T07:51:25;100697.03;;;35.18;19.59
72370;BME280;60343;-32.030;115.880;2022-12-07T07:53:52;100690.28;;;35.40;19.80
72370;BME280;60343;-32.030;115.880;2022-12-07T07:56:20;100690.91;;;35.45;19.66
72370;BME280;60343;-32.030;115.880;2022-12-07T07:58:48;100678.03;;;35.20;19.19
72370;BME280;60343;-32.030;115.880;2022-12-07T08:01:18;100683.41;;;35.16;19.98
72370;BME280;60343;-32.030;115.880;2022-12-07T08:03:47;100670.06;;;35.10;19.68
72370;BME280;60343;-32.030;115.880;2022-12-07T08:06:20;100664.09;;;35.20;19.85
72370;BME280;60343;-32.030;115.880;2022-12-07T08:08:48;100661.84;;;35.34;19.32
72370;BME280;60343;-32.030;115.880;2022-12-07T08:11:15;100674.22;;;35.57;19.16
72370;BME280;60343;-32.030;115.880;2022-12-07T08:13:45;100659.00;;;35.55;19.54
72370;BME280;60343;-32.030;115.880;2022-12-07T08:16:14;100660.03;;;35.50;18.69
72370;BME280;60343;-32.030;115.880;2022-12-07T08:18:42;100659.13;;;35.58;19.27
72370;BME280;60343;-32.030;115.880;2022-12-07T08:21:13;100658.75;;;35.48;19.36
72370;BME280;60343;-32.030;115.880;2022-12-07T08:23:47;100654.28;;;35.14;19.69
72370;BME280;60343;-32.030;115.880;2022-12-07T08:26:16;100649.75;;;34.88;20.08
72370;BME280;60343;-32.030;115.880;2022-12-07T08:28:44;100638.16;;;34.57;20.86
72370;BME280;60343;-32.030;115.880;2022-12-07T08:31:14;100637.69;;;34.55;20.42
72370;BME280;60343;-32.030;115.880;2022-12-07T08:33:43;100635.56;;;34.52;20.97
72370;BME280;60343;-32.030;115.880;2022-12-07T08:36:12;100639.19;;;34.53;20.47
72370;BME280;60343;-32.030;115.880;2022-12-07T08:38:46;100627.22;;;34.52;20.14
72370;BME280;60343;-32.030;115.880;2022-12-07T08:41:14;100627.22;;;34.52;20.76
72370;BME280;60343;-32.030;115.880;2022-12-07T08:43:42;100631.84;;;34.48;20.33
72370;BME280;60343;-32.030;115.880;2022-12-07T08:46:13;100629.69;;;34.16;20.20
72370;BME280;60343;-32.030;115.880;2022-12-07T08:48:49;100626.84;;;34.03;21.04
72370;BME280;60343;-32.030;115.880;2022-12-07T08:51:18;100634.25;;;33.82;20.83
72370;BME280;60343;-32.030;115.880;2022-12-07T08:53:53;100623.19;;;33.74;21.62
72370;BME280;60343;-32.030;115.880;2022-12-07T08:56:22;100623.03;;;33.70;20.50
72370;BME280;60343;-32.030;115.880;2022-12-07T08:58:50;100620.94;;;33.50;21.55
72370;BME280;60343;-32.030;115.880;2022-12-07T09:01:18;100620.31;;;33.44;21.38
72370;BME280;60343;-32.030;115.880;2022-12-07T09:03:45;100617.19;;;33.46;21.17
72370;BME280;60343;-32.030;115.880;2022-12-07T09:06:13;100609.31;;;33.56;21.97
72370;BME280;60343;-32.030;115.880;2022-12-07T09:08:43;100604.66;;;33.40;20.95
72370;BME280;60343;-32.030;115.880;2022-12-07T09:11:17;100613.66;;;33.19;21.43
72370;BME280;60343;-32.030;115.880;2022-12-07T09:13:45;100608.91;;;33.20;21.93
72370;BME280;60343;-32.030;115.880;2022-12-07T09:16:12;100604.97;;;33.12;21.15
72370;BME280;60343;-32.030;115.880;2022-12-07T09:18:40;100595.38;;;32.93;21.31
72370;BME280;60343;-32.030;115.880;2022-12-07T09:21:08;100592.41;;;32.72;22.05
72370;BME280;60343;-32.030;115.880;2022-12-07T09:23:36;100601.88;;;32.71;21.77
72370;BME280;60343;-32.030;115.880;2022-12-07T09:26:04;100596.78;;;32.56;22.01
72370;BME280;60343;-32.030;115.880;2022-12-07T09:28:38;100596.59;;;32.44;22.39
72370;BME280;60343;-32.030;115.880;2022-12-07T09:31:06;100597.59;;;32.39;22.40
72370;BME280;60343;-32.030;115.880;2022-12-07T09:33:33;100598.81;;;32.24;28.82
72370;BME280;60343;-32.030;115.880;2022-12-07T09:36:01;100592.22;;;31.41;32.51
72370;BME280;60343;-32.030;115.880;2022-12-07T09:38:30;100579.59;;;30.82;33.75
72370;BME280;60343;-32.030;115.880;2022-12-07T09:40:58;100567.16;;;30.44;33.76
72370;BME280;60343;-32.030;115.880;2022-12-07T09:43:36;100551.44;;;30.31;33.62
72370;BME280;60343;-32.030;115.880;2022-12-07T09:46:07;100559.88;;;30.12;34.30
72370;BME280;60343;-32.030;115.880;2022-12-07T09:48:37;100554.44;;;29.93;35.34
72370;BME280;60343;-32.030;115.880;2022-12-07T09:51:15;100546.03;;;29.57;35.70
72370;BME280;60343;-32.030;115.880;2022-12-07T09:53:43;100547.34;;;29.32;35.78
72370;BME280;60343;-32.030;115.880;2022-12-07T09:56:14;100554.59;;;29.10;37.11
72370;BME280;60343;-32.030;115.880;2022-12-07T09:58:48;100560.19;;;28.67;37.80
72370;BME280;60343;-32.030;115.880;2022-12-07T10:01:18;100561.00;;;28.49;37.96
72370;BME280;60343;-32.030;115.880;2022-12-07T10:03:49;100560.59;;;28.42;38.29
72370;BME280;60343;-32.030;115.880;2022-12-07T10:06:18;100559.75;;;28.41;38.14
72370;BME280;60343;-32.030;115.880;2022-12-07T10:08:46;100553.94;;;28.24;38.63
72370;BME280;60343;-32.030;115.880;2022-12-07T10:11:14;100554.38;;;28.07;39.38
72370;BME280;60343;-32.030;115.880;2022-12-07T10:13:49;100553.63;;;28.02;39.36
72370;BME280;60343;-32.030;115.880;2022-12-07T10:16:41;100543.44;;;27.79;40.26
72370;BME280;60343;-32.030;115.880;2022-12-07T10:19:24;100547.25;;;27.59;41.34
72370;BME280;60343;-32.030;115.880;2022-12-07T10:22:13;100543.63;;;27.35;42.27
72370;BME280;60343;-32.030;115.880;2022-12-07T10:24:42;100542.16;;;27.13;42.90
72370;BME280;60343;-32.030;115.880;2022-12-07T10:27:19;100539.84;;;26.97;44.14
72370;BME280;60343;-32.030;115.880;2022-12-07T10:29:58;100544.06;;;26.79;45.27
72370;BME280;60343;-32.030;115.880;2022-12-07T10:32:32;100542.38;;;26.49;46.12
72370;BME280;60343;-32.030;115.880;2022-12-07T10:35:24;100541.69;;;26.23;47.07
72370;BME280;60343;-32.030;115.880;2022-12-07T10:37:53;100549.72;;;26.04;47.50
72370;BME280;60343;-32.030;115.880;2022-12-07T10:40:32;100542.91;;;25.87;48.22
72370;BME280;60343;-32.030;115.880;2022-12-07T10:43:04;100550.06;;;25.78;48.53
72370;BME280;60343;-32.030;115.880;2022-12-07T10:45:36;100544.38;;;25.59;49.46
72370;BME280;60343;-32.030;115.880;2022-12-07T10:48:13;100550.13;;;25.37;50.13
72370;BME280;60343;-32.030;115.880;2022-12-07T10:50:57;100547.41;;;25.12;50.77
72370;BME280;60343;-32.030;115.880;2022-12-07T10:59:47;100567.88;;;24.49;52.73
72370;BME280;60343;-32.030;115.880;2022-12-07T11:02:41;100562.06;;;24.35;53.05
72370;BME280;60343;-32.030;115.880;2022-12-07T11:05:24;100564.25;;;24.28;53.43
72370;BME280;60343;-32.030;115.880;2022-12-07T11:12:01;100557.69;;;24.29;52.81
72370;BME280;60343;-32.030;115.880;2022-12-07T11:13:39;100546.19;;;24.27;52.82
72370;BME280;60343;-32.030;115.880;2022-12-07T11:16:25;100546.44;;;24.20;52.97
72370;BME280;60343;-32.030;115.880;2022-12-07T11:19:21;100533.50;;;24.11;52.97
72370;BME280;60343;-32.030;115.880;2022-12-07T11:21:55;100538.13;;;24.05;53.23
72370;BME280;60343;-32.030;115.880;2022-12-07T11:24:30;100528.00;;;24.01;53.39
72370;BME280;60343;-32.030;115.880;2022-12-07T11:27:10;100522.25;;;23.92;53.51
72370;BME280;60343;-32.030;115.880;2022-12-07T11:29:58;100522.75;;;23.84;53.78
72370;BME280;60343;-32.030;115.880;2022-12-07T11:32:45;100525.44;;;23.74;54.08
72370;BME280;60343;-32.030;115.880;2022-12-07T11:35:30;100518.31;;;23.73;54.00
72370;BME280;60343;-32.030;115.880;2022-12-07T11:38:07;100510.97;;;23.78;53.68
72370;BME280;60343;-32.030;115.880;2022-12-07T11:40:37;100507.13;;;23.79;53.57
72370;BME280;60343;-32.030;115.880;2022-12-07T11:43:11;100513.13;;;23.76;53.34
72370;BME280;60343;-32.030;115.880;2022-12-07T11:45:43;100500.56;;;23.80;53.46
72370;BME280;60343;-32.030;115.880;2022-12-07T11:48:15;100512.59;;;23.79;52.67
72370;BME280;60343;-32.030;115.880;2022-12-07T11:50:54;100501.66;;;23.79;52.39
72370;BME280;60343;-32.030;115.880;2022-12-07T11:53:28;100503.84;;;23.77;52.32
72370;BME280;60343;-32.030;115.880;2022-12-07T11:55:59;100510.09;;;23.68;52.33
72370;BME280;60343;-32.030;115.880;2022-12-07T11:58:45;100516.97;;;23.75;52.08
72370;BME280;60343;-32.030;115.880;2022-12-07T12:01:28;100518.88;;;23.75;51.64
72370;BME280;60343;-32.030;115.880;2022-12-07T12:03:58;100512.56;;;23.69;51.68
72370;BME280;60343;-32.030;115.880;2022-12-07T12:06:34;100519.41;;;23.72;51.41
72370;BME280;60343;-32.030;115.880;2022-12-07T12:09:04;100511.47;;;23.70;51.34
72370;BME280;60343;-32.030;115.880;2022-12-07T12:11:45;100512.03;;;23.72;50.83
72370;BME280;60343;-32.030;115.880;2022-12-07T12:14:32;100494.50;;;23.63;50.96
72370;BME280;60343;-32.030;115.880;2022-12-07T12:17:35;100509.25;;;23.62;51.23
72370;BME280;60343;-32.030;115.880;2022-12-07T12:20:14;100513.06;;;23.61;51.35
72370;BME280;60343;-32.030;115.880;2022-12-07T12:22:52;100521.25;;;23.56;51.21
72370;BME280;60343;-32.030;115.880;2022-12-07T12:25:23;100504.81;;;23.51;50.78
72370;BME280;60343;-32.030;115.880;2022-12-07T12:27:53;100499.88;;;23.48;50.77
72370;BME280;60343;-32.030;115.880;2022-12-07T12:30:34;100493.78;;;23.41;50.69
72370;BME280;60343;-32.030;115.880;2022-12-07T12:33:12;100478.19;;;23.36;50.23
72370;BME280;60343;-32.030;115.880;2022-12-07T12:35:40;100485.28;;;23.32;50.07
72370;BME280;60343;-32.030;115.880;2022-12-07T12:38:35;100497.88;;;23.33;49.53
72370;BME280;60343;-32.030;115.880;2022-12-07T12:47:39;100555.47;;;23.32;48.89
72370;BME280;60343;-32.030;115.880;2022-12-07T12:50:18;100593.22;;;23.40;48.46
72370;BME280;60343;-32.030;115.880;2022-12-07T12:52:53;100619.47;;;23.41;48.36
72370;BME280;60343;-32.030;115.880;2022-12-07T12:58:41;100626.50;;;23.59;47.77
72370;BME280;60343;-32.030;115.880;2022-12-07T13:04:17;100558.63;;;23.50;51.10
72370;BME280;60343;-32.030;115.880;2022-12-07T13:06:47;100525.47;;;23.37;50.83
72370;BME280;60343;-32.030;115.880;2022-12-07T13:09:21;100483.09;;;23.34;49.54
72370;BME280;60343;-32.030;115.880;2022-12-07T13:11:54;100465.88;;;23.34;47.98